sensor_id;sensor_type;location;lat;lon;timestamp;temperature;humidity
3818;DHT22;1924;48.078;11.516;2022-07-10T00:02:18;18.10;98.30
3818;DHT22;1924;48.078;11.516;2022-07-10T00:04:45;18.10;98.00
3818;DHT22;1924;48.078;11.516;2022-07-10T00:07:12;18.10;98.00
3818;DHT22;1924;48.078;11.516;2022-07-10T00:09:40;18.00;97.30
3818;DHT22;1924;48.078;11.516;2022-07-10T00:12:07;18.00;97.70
3818;DHT22;1924;48.078;11.516;2022-07-10T00:14:34;18.00;97.70
3818;DHT22;1924;48.078;11.516;2022-07-10T00:17:01;18.00;98.00
3818;DHT22;1924;48.078;11.516;2022-07-10T00:19:27;18.00;97.70
3818;DHT22;1924;48.078;11.516;2022-07-10T00:21:54;17.90;98.40
3818;DHT22;1924;48.078;11.516;2022-07-10T00:24:21;17.90;98.20
3818;DHT22;1924;48.078;11.516;2022-07-10T00:26:49;17.80;97.60
3818;DHT22;1924;48.078;11.516;2022-07-10T00:29:15;17.90;97.90
3818;DHT22;1924;48.078;11.516;2022-07-10T00:31:42;17.90;97.50
3818;DHT22;1924;48.078;11.516;2022-07-10T00:34:09;17.90;96.50
3818;DHT22;1924;48.078;11.516;2022-07-10T00:36:37;17.90;96.50
3818;DHT22;1924;48.078;11.516;2022-07-10T00:39:04;17.90;96.90
3818;DHT22;1924;48.078;11.516;2022-07-10T00:41:31;17.90;97.60
3818;DHT22;1924;48.078;11.516;2022-07-10T00:44:00;17.70;98.30
3818;DHT22;1924;48.078;11.516;2022-07-10T00:46:28;17.70;98.80
3818;DHT22;1924;48.078;11.516;2022-07-10T00:48:56;17.60;99.30
3818;DHT22;1924;48.078;11.516;2022-07-10T00:51:25;17.60;99.60
3818;DHT22;1924;48.078;11.516;2022-07-10T00:53:52;17.50;99.80
3818;DHT22;1924;48.078;11.516;2022-07-10T00:56:22;17.50;99.90
3818;DHT22;1924;48.078;11.516;2022-07-10T00:58:49;17.40;99.90
3818;DHT22;1924;48.078;11.516;2022-07-10T01:01:18;17.30;99.90
3818;DHT22;1924;48.078;11.516;2022-07-10T01:03:45;17.30;99.90
3818;DHT22;1924;48.078;11.516;2022-07-10T01:06:13;17.20;99.90
3818;DHT22;1924;48.078;11.516;2022-07-10T01:08:40;17.20;99.90
3818;DHT22;1924;48.078;11.516;2022-07-10T01:11:07;17.20;99.90
3818;DHT22;1924;48.078;11.516;2022-07-10T01:13:34;17.20;99.90
3818;DHT22;1924;48.078;11.516;2022-07-10T01:16:01;17.20;99.90
3818;DHT22;1924;48.078;11.516;2022-07-10T01:18:29;17.20;99.90
3818;DHT22;1924;48.078;11.516;2022-07-10T01:20:58;17.30;99.90
3818;DHT22;1924;48.078;11.516;2022-07-10T01:23:25;17.30;99.90
3818;DHT22;1924;48.078;11.516;2022-07-10T01:25:52;17.40;99.90
3818;DHT22;1924;48.078;11.516;2022-07-10T01:28:20;17.20;99.90
3818;DHT22;1924;48.078;11.516;2022-07-10T01:30:47;17.20;99.90
3818;DHT22;1924;48.078;11.516;2022-07-10T01:33:14;17.10;99.90
3818;DHT22;1924;48.078;11.516;2022-07-10T01:35:41;17.20;99.90
3818;DHT22;1924;48.078;11.516;2022-07-10T01:38:09;17.10;99.90
3818;DHT22;1924;48.078;11.516;2022-07-10T01:40:36;17.10;99.90
3818;DHT22;1924;48.078;11.516;2022-07-10T01:43:02;17.00;99.90
3818;DHT22;1924;48.078;11.516;2022-07-10T01:45:29;16.90;99.90
3818;DHT22;1924;48.078;11.516;2022-07-10T01:47:56;16.90;99.90
3818;DHT22;1924;48.078;11.516;2022-07-10T01:50:23;16.90;99.90
3818;DHT22;1924;48.078;11.516;2022-07-10T01:52:50;16.90;99.90
3818;DHT22;1924;48.078;11.516;2022-07-10T01:55:18;16.90;99.90
3818;DHT22;1924;48.078;11.516;2022-07-10T01:57:45;16.90;99.90
3818;DHT22;1924;48.078;11.516;2022-07-10T02:00:12;17.20;99.90
3818;DHT22;1924;48.078;11.516;2022-07-10T02:02:39;17.20;99.90
3818;DHT22;1924;48.078;11.516;2022-07-10T02:05:06;17.30;99.90
3818;DHT22;1924;48.078;11.516;2022-07-10T02:07:32;17.30;99.90
3818;DHT22;1924;48.078;11.516;2022-07-10T02:09:59;17.30;99.90
3818;DHT22;1924;48.078;11.516;2022-07-10T02:12:27;17.10;99.90
3818;DHT22;1924;48.078;11.516;2022-07-10T02:14:53;17.00;99.90
3818;DHT22;1924;48.078;11.516;2022-07-10T02:17:24;17.00;99.90
3818;DHT22;1924;48.078;11.516;2022-07-10T02:19:51;16.90;99.90
3818;DHT22;1924;48.078;11.516;2022-07-10T02:22:18;17.00;99.90
3818;DHT22;1924;48.078;11.516;2022-07-10T02:24:45;17.00;99.90
3818;DHT22;1924;48.078;11.516;2022-07-10T02:27:11;17.10;99.90
3818;DHT22;1924;48.078;11.516;2022-07-10T02:29:39;17.00;99.90
3818;DHT22;1924;48.078;11.516;2022-07-10T02:32:07;16.90;99.90
3818;DHT22;1924;48.078;11.516;2022-07-10T02:34:34;16.90;99.90
3818;DHT22;1924;48.078;11.516;2022-07-10T02:37:00;16.90;99.90
3818;DHT22;1924;48.078;11.516;2022-07-10T02:39:27;16.80;99.90
3818;DHT22;1924;48.078;11.516;2022-07-10T02:41:54;16.80;99.90
3818;DHT22;1924;48.078;11.516;2022-07-10T02:44:20;16.80;99.90
3818;DHT22;1924;48.078;11.516;2022-07-10T02:46:48;16.80;99.90
3818;DHT22;1924;48.078;11.516;2022-07-10T02:49:15;16.90;99.90
3818;DHT22;1924;48.078;11.516;2022-07-10T02:51:42;17.00;99.90
3818;DHT22;1924;48.078;11.516;2022-07-10T02:54:08;16.90;99.90
3818;DHT22;1924;48.078;11.516;2022-07-10T02:56:35;16.80;99.90
3818;DHT22;1924;48.078;11.516;2022-07-10T02:59:02;16.70;99.90
3818;DHT22;1924;48.078;11.516;2022-07-10T03:01:29;16.80;99.90
3818;DHT22;1924;48.078;11.516;2022-07-10T03:03:57;16.70;99.90
3818;DHT22;1924;48.078;11.516;2022-07-10T03:06:24;16.70;99.90
3818;DHT22;1924;48.078;11.516;2022-07-10T03:08:50;16.70;99.90
3818;DHT22;1924;48.078;11.516;2022-07-10T03:11:17;16.70;99.90
3818;DHT22;1924;48.078;11.516;2022-07-10T03:13:44;16.80;99.90
3818;DHT22;1924;48.078;11.516;2022-07-10T03:16:11;16.70;99.90
3818;DHT22;1924;48.078;11.516;2022-07-10T03:18:37;16.70;99.90
3818;DHT22;1924;48.078;11.516;2022-07-10T03:21:05;16.50;99.90
3818;DHT22;1924;48.078;11.516;2022-07-10T03:23:32;16.40;99.90
3818;DHT22;1924;48.078;11.516;2022-07-10T03:25:59;16.40;99.90
3818;DHT22;1924;48.078;11.516;2022-07-10T03:28:25;16.30;99.90
3818;DHT22;1924;48.078;11.516;2022-07-10T03:30:52;16.30;99.90
3818;DHT22;1924;48.078;11.516;2022-07-10T03:33:19;16.30;99.90
3818;DHT22;1924;48.078;11.516;2022-07-10T03:35:46;16.30;99.90
3818;DHT22;1924;48.078;11.516;2022-07-10T03:38:14;16.30;99.90
3818;DHT22;1924;48.078;11.516;2022-07-10T03:40:41;16.20;99.90
3818;DHT22;1924;48.078;11.516;2022-07-10T03:43:08;16.00;99.90
3818;DHT22;1924;48.078;11.516;2022-07-10T03:45:34;16.00;99.90
3818;DHT22;1924;48.078;11.516;2022-07-10T03:48:01;16.00;99.90
3818;DHT22;1924;48.078;11.516;2022-07-10T03:50:28;16.10;99.90
3818;DHT22;1924;48.078;11.516;2022-07-10T03:52:54;16.10;99.90
3818;DHT22;1924;48.078;11.516;2022-07-10T03:55:22;16.20;99.90
3818;DHT22;1924;48.078;11.516;2022-07-10T03:57:49;16.20;99.90
3818;DHT22;1924;48.078;11.516;2022-07-10T04:00:22;16.20;99.90
3818;DHT22;1924;48.078;11.516;2022-07-10T04:02:54;16.30;99.90
3818;DHT22;1924;48.078;11.516;2022-07-10T04:05:21;16.30;99.90
3818;DHT22;1924;48.078;11.516;2022-07-10T04:07:48;16.30;99.90
3818;DHT22;1924;48.078;11.516;2022-07-10T04:10:15;16.40;99.90
3818;DHT22;1924;48.078;11.516;2022-07-10T04:12:43;16.40;99.90
3818;DHT22;1924;48.078;11.516;2022-07-10T04:15:10;16.30;99.90
3818;DHT22;1924;48.078;11.516;2022-07-10T04:17:37;16.20;99.90
3818;DHT22;1924;48.078;11.516;2022-07-10T04:20:05;16.30;99.90
3818;DHT22;1924;48.078;11.516;2022-07-10T04:22:32;16.30;99.90
3818;DHT22;1924;48.078;11.516;2022-07-10T04:24:59;16.30;99.90
3818;DHT22;1924;48.078;11.516;2022-07-10T04:27:25;16.30;99.90
3818;DHT22;1924;48.078;11.516;2022-07-10T04:29:54;16.20;99.90
3818;DHT22;1924;48.078;11.516;2022-07-10T04:32:21;16.20;99.90
3818;DHT22;1924;48.078;11.516;2022-07-10T04:34:47;16.20;99.90
3818;DHT22;1924;48.078;11.516;2022-07-10T04:37:14;16.40;99.90
3818;DHT22;1924;48.078;11.516;2022-07-10T04:39:42;16.40;99.90
3818;DHT22;1924;48.078;11.516;2022-07-10T04:42:09;16.40;99.90
3818;DHT22;1924;48.078;11.516;2022-07-10T04:44:36;16.30;99.90
3818;DHT22;1924;48.078;11.516;2022-07-10T04:47:05;16.30;99.90
3818;DHT22;1924;48.078;11.516;2022-07-10T04:49:32;16.20;99.90
3818;DHT22;1924;48.078;11.516;2022-07-10T04:51:59;16.20;99.90
3818;DHT22;1924;48.078;11.516;2022-07-10T04:54:26;16.20;99.90
3818;DHT22;1924;48.078;11.516;2022-07-10T04:56:53;16.20;99.90
3818;DHT22;1924;48.078;11.516;2022-07-10T04:59:20;16.20;99.90
3818;DHT22;1924;48.078;11.516;2022-07-10T05:01:48;16.30;99.90
3818;DHT22;1924;48.078;11.516;2022-07-10T05:04:16;16.30;99.90
3818;DHT22;1924;48.078;11.516;2022-07-10T05:06:42;16.30;99.90
3818;DHT22;1924;48.078;11.516;2022-07-10T05:09:09;16.10;99.90
3818;DHT22;1924;48.078;11.516;2022-07-10T05:11:36;16.00;99.90
3818;DHT22;1924;48.078;11.516;2022-07-10T05:14:02;16.00;99.90
3818;DHT22;1924;48.078;11.516;2022-07-10T05:16:29;16.20;99.90
3818;DHT22;1924;48.078;11.516;2022-07-10T05:18:56;16.20;99.90
3818;DHT22;1924;48.078;11.516;2022-07-10T05:21:24;16.20;99.90
3818;DHT22;1924;48.078;11.516;2022-07-10T05:23:51;16.20;99.90
3818;DHT22;1924;48.078;11.516;2022-07-10T05:26:18;16.30;99.90
3818;DHT22;1924;48.078;11.516;2022-07-10T05:28:45;16.30;99.90
3818;DHT22;1924;48.078;11.516;2022-07-10T05:31:11;16.30;99.90
3818;DHT22;1924;48.078;11.516;2022-07-10T05:33:38;16.20;99.90
3818;DHT22;1924;48.078;11.516;2022-07-10T05:36:07;16.10;99.90
3818;DHT22;1924;48.078;11.516;2022-07-10T05:38:35;16.00;99.90
3818;DHT22;1924;48.078;11.516;2022-07-10T05:41:03;15.80;99.90
3818;DHT22;1924;48.078;11.516;2022-07-10T05:43:30;15.90;99.90
3818;DHT22;1924;48.078;11.516;2022-07-10T05:45:56;16.00;99.90
3818;DHT22;1924;48.078;11.516;2022-07-10T05:48:23;16.10;99.90
3818;DHT22;1924;48.078;11.516;2022-07-10T05:50:50;16.10;99.90
3818;DHT22;1924;48.078;11.516;2022-07-10T05:53:17;16.10;99.90
3818;DHT22;1924;48.078;11.516;2022-07-10T05:55:47;16.20;99.90
3818;DHT22;1924;48.078;11.516;2022-07-10T05:58:14;16.10;99.90
3818;DHT22;1924;48.078;11.516;2022-07-10T06:00:41;16.10;99.90
3818;DHT22;1924;48.078;11.516;2022-07-10T06:03:09;16.20;99.90
3818;DHT22;1924;48.078;11.516;2022-07-10T06:05:36;16.20;99.90
3818;DHT22;1924;48.078;11.516;2022-07-10T06:08:03;16.00;99.90
3818;DHT22;1924;48.078;11.516;2022-07-10T06:10:30;15.80;99.90
3818;DHT22;1924;48.078;11.516;2022-07-10T06:12:58;15.80;99.90
3818;DHT22;1924;48.078;11.516;2022-07-10T06:15:25;15.80;99.90
3818;DHT22;1924;48.078;11.516;2022-07-10T06:17:51;16.10;99.90
3818;DHT22;1924;48.078;11.516;2022-07-10T06:20:18;16.20;99.90
3818;DHT22;1924;48.078;11.516;2022-07-10T06:22:45;16.30;99.90
3818;DHT22;1924;48.078;11.516;2022-07-10T06:25:11;16.30;99.90
3818;DHT22;1924;48.078;11.516;2022-07-10T06:27:38;16.40;99.90
3818;DHT22;1924;48.078;11.516;2022-07-10T06:30:07;16.40;99.90
3818;DHT22;1924;48.078;11.516;2022-07-10T06:32:34;16.30;99.90
3818;DHT22;1924;48.078;11.516;2022-07-10T06:35:00;16.20;99.90
3818;DHT22;1924;48.078;11.516;2022-07-10T06:37:28;16.10;99.90
3818;DHT22;1924;48.078;11.516;2022-07-10T06:39:54;16.10;99.90
3818;DHT22;1924;48.078;11.516;2022-07-10T06:42:21;16.20;99.90
3818;DHT22;1924;48.078;11.516;2022-07-10T06:44:48;16.40;99.90
3818;DHT22;1924;48.078;11.516;2022-07-10T06:47:17;16.40;99.90
3818;DHT22;1924;48.078;11.516;2022-07-10T06:50:02;16.50;99.90
3818;DHT22;1924;48.078;11.516;2022-07-10T06:52:31;16.40;99.90
3818;DHT22;1924;48.078;11.516;2022-07-10T06:54:58;16.50;99.90
3818;DHT22;1924;48.078;11.516;2022-07-10T06:57:25;16.60;99.90
3818;DHT22;1924;48.078;11.516;2022-07-10T06:59:52;16.60;99.90
3818;DHT22;1924;48.078;11.516;2022-07-10T07:02:20;16.60;99.90
3818;DHT22;1924;48.078;11.516;2022-07-10T07:04:47;16.60;99.90
3818;DHT22;1924;48.078;11.516;2022-07-10T07:07:14;16.60;99.90
3818;DHT22;1924;48.078;11.516;2022-07-10T07:09:41;16.70;99.90
3818;DHT22;1924;48.078;11.516;2022-07-10T07:12:09;16.70;99.90
3818;DHT22;1924;48.078;11.516;2022-07-10T07:14:36;16.70;99.90
3818;DHT22;1924;48.078;11.516;2022-07-10T07:17:04;16.70;99.90
3818;DHT22;1924;48.078;11.516;2022-07-10T07:19:36;16.90;99.90
3818;DHT22;1924;48.078;11.516;2022-07-10T07:22:20;16.80;99.90
3818;DHT22;1924;48.078;11.516;2022-07-10T07:25:05;16.80;99.90
3818;DHT22;1924;48.078;11.516;2022-07-10T07:27:33;16.70;99.90
3818;DHT22;1924;48.078;11.516;2022-07-10T07:30:02;16.60;99.90
3818;DHT22;1924;48.078;11.516;2022-07-10T07:32:30;16.50;99.90
3818;DHT22;1924;48.078;11.516;2022-07-10T07:34:58;16.50;99.90
3818;DHT22;1924;48.078;11.516;2022-07-10T07:37:35;16.50;99.90
3818;DHT22;1924;48.078;11.516;2022-07-10T07:40:02;16.70;99.90
3818;DHT22;1924;48.078;11.516;2022-07-10T07:42:29;16.80;99.90
3818;DHT22;1924;48.078;11.516;2022-07-10T07:44:56;16.80;99.90
3818;DHT22;1924;48.078;11.516;2022-07-10T07:47:22;16.90;99.90
3818;DHT22;1924;48.078;11.516;2022-07-10T07:49:49;16.80;99.90
3818;DHT22;1924;48.078;11.516;2022-07-10T07:52:17;16.70;99.90
3818;DHT22;1924;48.078;11.516;2022-07-10T07:54:44;16.60;99.90
3818;DHT22;1924;48.078;11.516;2022-07-10T07:57:11;16.60;99.90
3818;DHT22;1924;48.078;11.516;2022-07-10T07:59:38;16.80;99.90
3818;DHT22;1924;48.078;11.516;2022-07-10T08:02:06;17.00;99.90
3818;DHT22;1924;48.078;11.516;2022-07-10T08:04:33;17.00;99.90
3818;DHT22;1924;48.078;11.516;2022-07-10T08:06:59;16.90;99.90
3818;DHT22;1924;48.078;11.516;2022-07-10T08:09:29;16.90;99.90
3818;DHT22;1924;48.078;11.516;2022-07-10T08:11:55;17.00;99.90
3818;DHT22;1924;48.078;11.516;2022-07-10T08:14:22;17.10;99.90
3818;DHT22;1924;48.078;11.516;2022-07-10T08:16:49;17.30;99.90
3818;DHT22;1924;48.078;11.516;2022-07-10T08:19:16;17.40;99.90
3818;DHT22;1924;48.078;11.516;2022-07-10T08:21:43;17.50;99.90
3818;DHT22;1924;48.078;11.516;2022-07-10T08:24:10;17.40;99.90
3818;DHT22;1924;48.078;11.516;2022-07-10T08:26:38;17.40;99.90
3818;DHT22;1924;48.078;11.516;2022-07-10T08:29:04;17.30;99.90
3818;DHT22;1924;48.078;11.516;2022-07-10T08:31:31;17.00;99.90
3818;DHT22;1924;48.078;11.516;2022-07-10T08:33:58;17.10;99.90
3818;DHT22;1924;48.078;11.516;2022-07-10T08:36:25;17.40;99.90
3818;DHT22;1924;48.078;11.516;2022-07-10T08:38:53;17.70;99.90
3818;DHT22;1924;48.078;11.516;2022-07-10T08:41:24;17.80;99.90
3818;DHT22;1924;48.078;11.516;2022-07-10T08:43:53;17.70;99.90
3818;DHT22;1924;48.078;11.516;2022-07-10T08:46:20;17.60;99.90
3818;DHT22;1924;48.078;11.516;2022-07-10T08:48:47;17.70;99.90
3818;DHT22;1924;48.078;11.516;2022-07-10T08:51:21;17.90;99.90
3818;DHT22;1924;48.078;11.516;2022-07-10T08:53:49;18.10;99.90
3818;DHT22;1924;48.078;11.516;2022-07-10T08:56:17;18.30;99.90
3818;DHT22;1924;48.078;11.516;2022-07-10T08:58:44;18.50;99.90
3818;DHT22;1924;48.078;11.516;2022-07-10T09:01:13;18.40;99.90
3818;DHT22;1924;48.078;11.516;2022-07-10T09:03:39;18.40;99.90
3818;DHT22;1924;48.078;11.516;2022-07-10T09:06:06;18.50;99.90
3818;DHT22;1924;48.078;11.516;2022-07-10T09:08:33;18.70;99.90
3818;DHT22;1924;48.078;11.516;2022-07-10T09:11:13;18.70;99.90
3818;DHT22;1924;48.078;11.516;2022-07-10T09:13:49;18.40;99.90
3818;DHT22;1924;48.078;11.516;2022-07-10T09:16:22;17.80;99.90
3818;DHT22;1924;48.078;11.516;2022-07-10T09:18:49;17.80;99.90
3818;DHT22;1924;48.078;11.516;2022-07-10T09:21:16;18.10;99.90
3818;DHT22;1924;48.078;11.516;2022-07-10T09:23:43;18.50;99.90
3818;DHT22;1924;48.078;11.516;2022-07-10T09:26:10;18.50;99.90
3818;DHT22;1924;48.078;11.516;2022-07-10T09:28:37;18.50;99.90
3818;DHT22;1924;48.078;11.516;2022-07-10T09:31:04;18.70;99.90
3818;DHT22;1924;48.078;11.516;2022-07-10T09:33:32;19.00;99.90
3818;DHT22;1924;48.078;11.516;2022-07-10T09:36:03;18.80;99.90
3818;DHT22;1924;48.078;11.516;2022-07-10T09:38:48;18.70;99.90
3818;DHT22;1924;48.078;11.516;2022-07-10T09:41:17;18.40;99.60
3818;DHT22;1924;48.078;11.516;2022-07-10T09:43:46;18.50;99.90
3818;DHT22;1924;48.078;11.516;2022-07-10T09:46:13;18.80;99.90
3818;DHT22;1924;48.078;11.516;2022-07-10T09:48:41;19.00;99.70
3818;DHT22;1924;48.078;11.516;2022-07-10T09:51:09;19.10;99.10
3818;DHT22;1924;48.078;11.516;2022-07-10T09:53:38;19.00;98.60
3818;DHT22;1924;48.078;11.516;2022-07-10T09:56:07;19.20;97.50
3818;DHT22;1924;48.078;11.516;2022-07-10T09:58:34;19.30;97.90
3818;DHT22;1924;48.078;11.516;2022-07-10T10:01:03;19.70;98.30
3818;DHT22;1924;48.078;11.516;2022-07-10T10:03:33;19.60;96.00
3818;DHT22;1924;48.078;11.516;2022-07-10T10:06:05;19.50;97.00
3818;DHT22;1924;48.078;11.516;2022-07-10T10:08:44;19.50;96.60
3818;DHT22;1924;48.078;11.516;2022-07-10T10:11:14;19.30;95.10
3818;DHT22;1924;48.078;11.516;2022-07-10T10:13:43;19.40;95.70
3818;DHT22;1924;48.078;11.516;2022-07-10T10:16:10;19.60;92.60
3818;DHT22;1924;48.078;11.516;2022-07-10T10:18:38;19.50;91.90
3818;DHT22;1924;48.078;11.516;2022-07-10T10:21:28;19.60;93.50
3818;DHT22;1924;48.078;11.516;2022-07-10T10:23:54;20.00;95.60
3818;DHT22;1924;48.078;11.516;2022-07-10T10:26:22;20.10;94.10
3818;DHT22;1924;48.078;11.516;2022-07-10T10:28:51;20.10;95.40
3818;DHT22;1924;48.078;11.516;2022-07-10T10:31:19;20.10;92.90
3818;DHT22;1924;48.078;11.516;2022-07-10T10:33:46;19.90;93.30
3818;DHT22;1924;48.078;11.516;2022-07-10T10:36:45;19.80;93.60
3818;DHT22;1924;48.078;11.516;2022-07-10T10:39:14;19.90;94.60
3818;DHT22;1924;48.078;11.516;2022-07-10T10:41:45;20.10;93.30
3818;DHT22;1924;48.078;11.516;2022-07-10T10:44:36;19.60;92.00
3818;DHT22;1924;48.078;11.516;2022-07-10T10:47:05;18.90;92.30
3818;DHT22;1924;48.078;11.516;2022-07-10T10:50:02;19.00;94.60
3818;DHT22;1924;48.078;11.516;2022-07-10T10:52:30;19.40;95.30
3818;DHT22;1924;48.078;11.516;2022-07-10T10:55:06;19.40;93.20
3818;DHT22;1924;48.078;11.516;2022-07-10T10:57:41;19.40;92.90
3818;DHT22;1924;48.078;11.516;2022-07-10T11:03:19;19.30;92.80
3818;DHT22;1924;48.078;11.516;2022-07-10T11:05:47;19.60;92.10
3818;DHT22;1924;48.078;11.516;2022-07-10T11:08:37;19.80;92.10
3818;DHT22;1924;48.078;11.516;2022-07-10T11:14:03;19.40;92.30
3818;DHT22;1924;48.078;11.516;2022-07-10T11:16:31;19.20;93.00
3818;DHT22;1924;48.078;11.516;2022-07-10T11:19:00;19.40;93.90
3818;DHT22;1924;48.078;11.516;2022-07-10T11:21:28;19.40;91.70
3818;DHT22;1924;48.078;11.516;2022-07-10T11:24:04;19.30;91.40
3818;DHT22;1924;48.078;11.516;2022-07-10T11:26:39;19.50;92.40
3818;DHT22;1924;48.078;11.516;2022-07-10T11:29:11;19.70;92.60
3818;DHT22;1924;48.078;11.516;2022-07-10T11:31:38;20.20;91.80
3818;DHT22;1924;48.078;11.516;2022-07-10T11:34:10;20.80;93.20
3818;DHT22;1924;48.078;11.516;2022-07-10T11:36:39;20.80;88.90
3818;DHT22;1924;48.078;11.516;2022-07-10T11:39:08;20.50;88.30
3818;DHT22;1924;48.078;11.516;2022-07-10T11:41:42;20.00;88.30
3818;DHT22;1924;48.078;11.516;2022-07-10T11:44:13;20.20;91.00
3818;DHT22;1924;48.078;11.516;2022-07-10T11:46:41;20.50;91.20
3818;DHT22;1924;48.078;11.516;2022-07-10T11:49:11;20.90;92.60
3818;DHT22;1924;48.078;11.516;2022-07-10T11:51:41;20.90;90.40
3818;DHT22;1924;48.078;11.516;2022-07-10T11:54:11;21.00;91.20
3818;DHT22;1924;48.078;11.516;2022-07-10T11:56:40;21.10;89.70
3818;DHT22;1924;48.078;11.516;2022-07-10T11:59:10;21.20;90.10
3818;DHT22;1924;48.078;11.516;2022-07-10T12:01:42;20.90;84.50
3818;DHT22;1924;48.078;11.516;2022-07-10T12:04:09;20.70;84.20
3818;DHT22;1924;48.078;11.516;2022-07-10T12:06:38;20.10;85.10
3818;DHT22;1924;48.078;11.516;2022-07-10T12:09:07;19.60;85.90
3818;DHT22;1924;48.078;11.516;2022-07-10T12:11:35;19.90;90.70
3818;DHT22;1924;48.078;11.516;2022-07-10T12:14:10;20.20;86.80
3818;DHT22;1924;48.078;11.516;2022-07-10T12:16:38;20.10;83.20
3818;DHT22;1924;48.078;11.516;2022-07-10T12:19:07;19.80;84.80
3818;DHT22;1924;48.078;11.516;2022-07-10T12:21:34;19.90;85.80
3818;DHT22;1924;48.078;11.516;2022-07-10T12:24:01;20.30;86.60
3818;DHT22;1924;48.078;11.516;2022-07-10T12:26:32;20.30;86.00
3818;DHT22;1924;48.078;11.516;2022-07-10T12:29:02;20.50;86.00
3818;DHT22;1924;48.078;11.516;2022-07-10T12:31:30;20.50;85.10
3818;DHT22;1924;48.078;11.516;2022-07-10T12:33:59;20.50;84.20
3818;DHT22;1924;48.078;11.516;2022-07-10T12:36:45;20.50;88.00
3818;DHT22;1924;48.078;11.516;2022-07-10T12:39:12;20.30;84.10
3818;DHT22;1924;48.078;11.516;2022-07-10T12:41:58;20.30;83.30
3818;DHT22;1924;48.078;11.516;2022-07-10T12:44:38;20.60;84.00
3818;DHT22;1924;48.078;11.516;2022-07-10T12:47:06;21.10;87.80
3818;DHT22;1924;48.078;11.516;2022-07-10T12:49:48;21.10;85.90
3818;DHT22;1924;48.078;11.516;2022-07-10T12:52:20;21.50;80.50
3818;DHT22;1924;48.078;11.516;2022-07-10T12:54:47;21.10;79.20
3818;DHT22;1924;48.078;11.516;2022-07-10T12:57:14;21.30;82.80
3818;DHT22;1924;48.078;11.516;2022-07-10T12:59:42;21.30;84.90
3818;DHT22;1924;48.078;11.516;2022-07-10T13:02:16;20.80;79.10
3818;DHT22;1924;48.078;11.516;2022-07-10T13:04:52;20.50;82.60
3818;DHT22;1924;48.078;11.516;2022-07-10T13:07:20;20.30;84.80
3818;DHT22;1924;48.078;11.516;2022-07-10T13:09:54;20.30;81.60
3818;DHT22;1924;48.078;11.516;2022-07-10T13:12:21;20.30;79.10
3818;DHT22;1924;48.078;11.516;2022-07-10T13:14:50;20.20;77.70
3818;DHT22;1924;48.078;11.516;2022-07-10T13:17:16;20.10;78.50
3818;DHT22;1924;48.078;11.516;2022-07-10T13:19:43;19.90;78.40
3818;DHT22;1924;48.078;11.516;2022-07-10T13:22:10;20.00;80.10
3818;DHT22;1924;48.078;11.516;2022-07-10T13:24:37;20.10;82.20
3818;DHT22;1924;48.078;11.516;2022-07-10T13:27:04;20.20;79.80
3818;DHT22;1924;48.078;11.516;2022-07-10T13:29:32;20.50;85.00
3818;DHT22;1924;48.078;11.516;2022-07-10T13:32:01;20.90;83.30
3818;DHT22;1924;48.078;11.516;2022-07-10T13:34:28;20.90;81.10
3818;DHT22;1924;48.078;11.516;2022-07-10T13:36:55;21.00;80.10
3818;DHT22;1924;48.078;11.516;2022-07-10T13:39:22;21.10;80.50
3818;DHT22;1924;48.078;11.516;2022-07-10T13:41:49;20.90;76.50
3818;DHT22;1924;48.078;11.516;2022-07-10T13:44:16;20.80;75.90
3818;DHT22;1924;48.078;11.516;2022-07-10T13:46:43;20.50;77.30
3818;DHT22;1924;48.078;11.516;2022-07-10T13:49:11;20.50;80.40
3818;DHT22;1924;48.078;11.516;2022-07-10T13:51:38;20.80;77.90
3818;DHT22;1924;48.078;11.516;2022-07-10T13:54:05;20.60;75.60
3818;DHT22;1924;48.078;11.516;2022-07-10T13:56:32;20.30;77.30
3818;DHT22;1924;48.078;11.516;2022-07-10T13:58:59;20.40;80.70
3818;DHT22;1924;48.078;11.516;2022-07-10T14:01:26;20.70;79.90
3818;DHT22;1924;48.078;11.516;2022-07-10T14:03:53;21.00;78.10
3818;DHT22;1924;48.078;11.516;2022-07-10T14:06:21;21.00;75.00
3818;DHT22;1924;48.078;11.516;2022-07-10T14:08:47;21.20;75.50
3818;DHT22;1924;48.078;11.516;2022-07-10T14:11:14;21.10;77.40
3818;DHT22;1924;48.078;11.516;2022-07-10T14:13:43;20.90;73.60
3818;DHT22;1924;48.078;11.516;2022-07-10T14:16:10;20.50;73.00
3818;DHT22;1924;48.078;11.516;2022-07-10T14:18:37;20.50;75.20
3818;DHT22;1924;48.078;11.516;2022-07-10T14:21:05;20.50;73.60
3818;DHT22;1924;48.078;11.516;2022-07-10T14:23:36;20.40;74.60
3818;DHT22;1924;48.078;11.516;2022-07-10T14:26:04;20.40;72.90
3818;DHT22;1924;48.078;11.516;2022-07-10T14:28:32;20.30;72.80
3818;DHT22;1924;48.078;11.516;2022-07-10T14:31:00;20.30;72.00
3818;DHT22;1924;48.078;11.516;2022-07-10T14:33:29;20.20;74.30
3818;DHT22;1924;48.078;11.516;2022-07-10T14:35:56;20.10;72.00
3818;DHT22;1924;48.078;11.516;2022-07-10T14:38:23;20.20;75.70
3818;DHT22;1924;48.078;11.516;2022-07-10T14:40:51;20.40;76.00
3818;DHT22;1924;48.078;11.516;2022-07-10T14:43:18;20.40;74.30
3818;DHT22;1924;48.078;11.516;2022-07-10T14:45:45;20.40;72.90
3818;DHT22;1924;48.078;11.516;2022-07-10T14:48:12;20.40;73.60
3818;DHT22;1924;48.078;11.516;2022-07-10T14:50:39;20.20;70.80
3818;DHT22;1924;48.078;11.516;2022-07-10T14:53:06;20.00;72.00
3818;DHT22;1924;48.078;11.516;2022-07-10T14:55:33;20.00;73.10
3818;DHT22;1924;48.078;11.516;2022-07-10T14:58:02;20.10;72.50
3818;DHT22;1924;48.078;11.516;2022-07-10T15:00:28;20.00;72.70
3818;DHT22;1924;48.078;11.516;2022-07-10T15:02:55;20.00;71.50
3818;DHT22;1924;48.078;11.516;2022-07-10T15:05:22;19.90;72.30
3818;DHT22;1924;48.078;11.516;2022-07-10T15:07:48;20.10;74.90
3818;DHT22;1924;48.078;11.516;2022-07-10T15:10:15;20.20;73.90
3818;DHT22;1924;48.078;11.516;2022-07-10T15:12:44;20.20;70.50
3818;DHT22;1924;48.078;11.516;2022-07-10T15:15:12;20.00;70.40
3818;DHT22;1924;48.078;11.516;2022-07-10T15:17:39;20.00;71.50
3818;DHT22;1924;48.078;11.516;2022-07-10T15:20:07;20.10;72.20
3818;DHT22;1924;48.078;11.516;2022-07-10T15:22:34;20.10;69.80
3818;DHT22;1924;48.078;11.516;2022-07-10T15:25:00;20.00;69.00
3818;DHT22;1924;48.078;11.516;2022-07-10T15:27:27;20.00;70.20
3818;DHT22;1924;48.078;11.516;2022-07-10T15:29:54;20.00;72.60
3818;DHT22;1924;48.078;11.516;2022-07-10T15:32:22;20.00;71.40
3818;DHT22;1924;48.078;11.516;2022-07-10T15:34:49;20.10;72.80
3818;DHT22;1924;48.078;11.516;2022-07-10T15:37:16;20.10;73.40
3818;DHT22;1924;48.078;11.516;2022-07-10T15:39:43;20.20;71.70
3818;DHT22;1924;48.078;11.516;2022-07-10T15:42:10;20.10;70.60
3818;DHT22;1924;48.078;11.516;2022-07-10T15:44:38;20.10;69.90
3818;DHT22;1924;48.078;11.516;2022-07-10T15:47:06;20.10;68.30
3818;DHT22;1924;48.078;11.516;2022-07-10T15:49:34;19.90;68.10
3818;DHT22;1924;48.078;11.516;2022-07-10T15:52:01;19.80;70.20
3818;DHT22;1924;48.078;11.516;2022-07-10T15:54:28;19.70;68.30
3818;DHT22;1924;48.078;11.516;2022-07-10T15:56:55;19.70;70.10
3818;DHT22;1924;48.078;11.516;2022-07-10T15:59:22;19.70;68.80